sensor_id;sensor_type;location;lat;lon;timestamp;P1;durP1;ratioP1;P2;durP2;ratioP2
4311;SDS011;2169;49.086;9.284;2022-08-19T00:01:54;17.20;;;9.40;;
4311;SDS011;2169;49.086;9.284;2022-08-19T00:04:25;13.10;;;8.13;;
4311;SDS011;2169;49.086;9.284;2022-08-19T00:06:53;11.10;;;9.67;;
4311;SDS011;2169;49.086;9.284;2022-08-19T00:09:21;12.50;;;7.90;;
4311;SDS011;2169;49.086;9.284;2022-08-19T00:11:49;15.20;;;9.83;;
4311;SDS011;2169;49.086;9.284;2022-08-19T00:14:16;13.93;;;9.40;;
4311;SDS011;2169;49.086;9.284;2022-08-19T00:16:45;15.47;;;10.60;;
4311;SDS011;2169;49.086;9.284;2022-08-19T00:19:13;8.53;;;7.43;;
4311;SDS011;2169;49.086;9.284;2022-08-19T00:21:42;13.93;;;10.97;;
4311;SDS011;2169;49.086;9.284;2022-08-19T00:24:10;11.87;;;9.47;;
4311;SDS011;2169;49.086;9.284;2022-08-19T00:26:38;13.57;;;9.17;;
4311;SDS011;2169;49.086;9.284;2022-08-19T00:29:06;12.33;;;9.27;;
4311;SDS011;2169;49.086;9.284;2022-08-19T00:31:34;13.00;;;10.07;;
4311;SDS011;2169;49.086;9.284;2022-08-19T00:34:01;10.63;;;8.97;;
4311;SDS011;2169;49.086;9.284;2022-08-19T00:36:28;10.40;;;9.33;;
4311;SDS011;2169;49.086;9.284;2022-08-19T00:38:58;10.23;;;7.60;;
4311;SDS011;2169;49.086;9.284;2022-08-19T00:41:25;12.50;;;9.97;;
4311;SDS011;2169;49.086;9.284;2022-08-19T00:44:02;18.13;;;9.50;;
4311;SDS011;2169;49.086;9.284;2022-08-19T00:46:31;13.43;;;10.50;;
4311;SDS011;2169;49.086;9.284;2022-08-19T00:49:00;14.67;;;11.23;;
4311;SDS011;2169;49.086;9.284;2022-08-19T00:51:31;16.53;;;10.07;;
4311;SDS011;2169;49.086;9.284;2022-08-19T00:54:00;11.87;;;8.60;;
4311;SDS011;2169;49.086;9.284;2022-08-19T00:56:28;11.90;;;8.63;;
4311;SDS011;2169;49.086;9.284;2022-08-19T00:58:56;13.83;;;10.67;;
4311;SDS011;2169;49.086;9.284;2022-08-19T01:01:26;10.17;;;8.90;;
4311;SDS011;2169;49.086;9.284;2022-08-19T01:03:53;11.63;;;9.53;;
4311;SDS011;2169;49.086;9.284;2022-08-19T01:06:20;10.37;;;8.67;;
4311;SDS011;2169;49.086;9.284;2022-08-19T01:08:47;12.80;;;10.20;;
4311;SDS011;2169;49.086;9.284;2022-08-19T01:11:16;13.57;;;9.67;;
4311;SDS011;2169;49.086;9.284;2022-08-19T01:13:43;16.80;;;11.93;;
4311;SDS011;2169;49.086;9.284;2022-08-19T01:16:11;12.40;;;9.33;;
4311;SDS011;2169;49.086;9.284;2022-08-19T01:18:40;16.60;;;11.13;;
4311;SDS011;2169;49.086;9.284;2022-08-19T01:21:09;12.50;;;9.53;;
4311;SDS011;2169;49.086;9.284;2022-08-19T01:23:43;13.67;;;11.80;;
4311;SDS011;2169;49.086;9.284;2022-08-19T01:26:11;14.70;;;10.30;;
4311;SDS011;2169;49.086;9.284;2022-08-19T01:28:40;15.80;;;10.03;;
4311;SDS011;2169;49.086;9.284;2022-08-19T01:31:14;12.47;;;9.67;;
4311;SDS011;2169;49.086;9.284;2022-08-19T01:33:43;15.80;;;10.67;;
4311;SDS011;2169;49.086;9.284;2022-08-19T01:36:12;12.63;;;9.70;;
4311;SDS011;2169;49.086;9.284;2022-08-19T01:38:42;11.33;;;10.07;;
4311;SDS011;2169;49.086;9.284;2022-08-19T01:41:11;16.97;;;12.17;;
4311;SDS011;2169;49.086;9.284;2022-08-19T01:43:38;11.70;;;9.47;;
4311;SDS011;2169;49.086;9.284;2022-08-19T01:46:06;17.00;;;11.47;;
4311;SDS011;2169;49.086;9.284;2022-08-19T01:48:34;13.43;;;9.80;;
4311;SDS011;2169;49.086;9.284;2022-08-19T01:51:01;12.43;;;10.00;;
4311;SDS011;2169;49.086;9.284;2022-08-19T01:53:28;13.10;;;11.07;;
4311;SDS011;2169;49.086;9.284;2022-08-19T01:55:56;16.70;;;10.70;;
4311;SDS011;2169;49.086;9.284;2022-08-19T01:58:24;16.17;;;11.10;;
4311;SDS011;2169;49.086;9.284;2022-08-19T02:00:56;18.93;;;11.93;;
4311;SDS011;2169;49.086;9.284;2022-08-19T02:03:23;18.23;;;11.00;;
4311;SDS011;2169;49.086;9.284;2022-08-19T02:05:53;18.30;;;12.00;;
4311;SDS011;2169;49.086;9.284;2022-08-19T02:08:21;16.20;;;11.60;;
4311;SDS011;2169;49.086;9.284;2022-08-19T02:10:48;14.17;;;11.27;;
4311;SDS011;2169;49.086;9.284;2022-08-19T02:13:17;15.10;;;12.20;;
4311;SDS011;2169;49.086;9.284;2022-08-19T02:15:44;11.57;;;10.20;;
4311;SDS011;2169;49.086;9.284;2022-08-19T02:18:11;15.60;;;11.67;;
4311;SDS011;2169;49.086;9.284;2022-08-19T02:20:39;13.57;;;10.17;;
4311;SDS011;2169;49.086;9.284;2022-08-19T02:23:06;25.43;;;13.97;;
4311;SDS011;2169;49.086;9.284;2022-08-19T02:25:33;22.93;;;10.40;;
4311;SDS011;2169;49.086;9.284;2022-08-19T02:28:00;16.90;;;11.20;;
4311;SDS011;2169;49.086;9.284;2022-08-19T02:30:29;17.93;;;11.90;;
4311;SDS011;2169;49.086;9.284;2022-08-19T02:32:56;17.77;;;11.60;;
4311;SDS011;2169;49.086;9.284;2022-08-19T02:35:23;16.80;;;12.60;;
4311;SDS011;2169;49.086;9.284;2022-08-19T02:37:50;16.87;;;11.03;;
4311;SDS011;2169;49.086;9.284;2022-08-19T02:40:40;20.73;;;14.60;;
4311;SDS011;2169;49.086;9.284;2022-08-19T02:43:07;17.80;;;11.83;;
4311;SDS011;2169;49.086;9.284;2022-08-19T02:45:37;20.43;;;13.27;;
4311;SDS011;2169;49.086;9.284;2022-08-19T02:48:05;14.63;;;11.77;;
4311;SDS011;2169;49.086;9.284;2022-08-19T02:50:32;17.97;;;12.00;;
4311;SDS011;2169;49.086;9.284;2022-08-19T02:52:59;20.10;;;11.97;;
4311;SDS011;2169;49.086;9.284;2022-08-19T02:55:26;22.30;;;11.27;;
4311;SDS011;2169;49.086;9.284;2022-08-19T02:57:53;20.63;;;12.63;;
4311;SDS011;2169;49.086;9.284;2022-08-19T03:00:19;23.87;;;14.13;;
4311;SDS011;2169;49.086;9.284;2022-08-19T03:02:48;21.90;;;12.67;;
4311;SDS011;2169;49.086;9.284;2022-08-19T03:05:14;18.13;;;11.40;;
4311;SDS011;2169;49.086;9.284;2022-08-19T03:07:41;16.70;;;11.67;;
4311;SDS011;2169;49.086;9.284;2022-08-19T03:10:08;22.70;;;13.47;;
4311;SDS011;2169;49.086;9.284;2022-08-19T03:12:35;21.30;;;12.70;;
4311;SDS011;2169;49.086;9.284;2022-08-19T03:15:04;15.50;;;11.37;;
4311;SDS011;2169;49.086;9.284;2022-08-19T03:17:32;16.93;;;12.27;;
4311;SDS011;2169;49.086;9.284;2022-08-19T03:20:00;21.70;;;14.53;;
4311;SDS011;2169;49.086;9.284;2022-08-19T03:22:28;20.93;;;12.37;;
4311;SDS011;2169;49.086;9.284;2022-08-19T03:24:55;27.87;;;13.17;;
4311;SDS011;2169;49.086;9.284;2022-08-19T03:27:21;18.73;;;11.87;;
4311;SDS011;2169;49.086;9.284;2022-08-19T03:29:48;20.57;;;13.57;;
4311;SDS011;2169;49.086;9.284;2022-08-19T03:32:15;17.47;;;13.37;;
4311;SDS011;2169;49.086;9.284;2022-08-19T03:34:42;14.53;;;11.57;;
4311;SDS011;2169;49.086;9.284;2022-08-19T03:37:11;24.77;;;16.57;;
4311;SDS011;2169;49.086;9.284;2022-08-19T03:39:38;18.90;;;12.60;;
4311;SDS011;2169;49.086;9.284;2022-08-19T03:42:07;27.23;;;14.37;;
4311;SDS011;2169;49.086;9.284;2022-08-19T03:44:34;20.47;;;13.23;;
4311;SDS011;2169;49.086;9.284;2022-08-19T03:47:02;20.20;;;13.73;;
4311;SDS011;2169;49.086;9.284;2022-08-19T03:49:31;17.17;;;11.90;;
4311;SDS011;2169;49.086;9.284;2022-08-19T03:52:00;23.77;;;12.93;;
4311;SDS011;2169;49.086;9.284;2022-08-19T03:54:31;21.23;;;12.13;;
4311;SDS011;2169;49.086;9.284;2022-08-19T03:56:58;23.70;;;11.97;;
4311;SDS011;2169;49.086;9.284;2022-08-19T03:59:25;21.73;;;12.53;;
4311;SDS011;2169;49.086;9.284;2022-08-19T04:01:54;31.30;;;12.90;;
4311;SDS011;2169;49.086;9.284;2022-08-19T04:04:22;18.20;;;12.47;;
4311;SDS011;2169;49.086;9.284;2022-08-19T04:06:50;22.97;;;13.53;;
4311;SDS011;2169;49.086;9.284;2022-08-19T04:09:18;20.07;;;13.00;;
4311;SDS011;2169;49.086;9.284;2022-08-19T04:11:48;20.17;;;13.63;;
4311;SDS011;2169;49.086;9.284;2022-08-19T04:14:20;20.43;;;11.23;;
4311;SDS011;2169;49.086;9.284;2022-08-19T04:16:49;17.47;;;11.80;;
4311;SDS011;2169;49.086;9.284;2022-08-19T04:19:17;22.63;;;11.83;;
4311;SDS011;2169;49.086;9.284;2022-08-19T04:21:45;23.53;;;12.83;;
4311;SDS011;2169;49.086;9.284;2022-08-19T04:24:14;21.90;;;12.63;;
4311;SDS011;2169;49.086;9.284;2022-08-19T04:26:41;23.03;;;13.00;;
4311;SDS011;2169;49.086;9.284;2022-08-19T04:29:10;21.33;;;12.70;;
4311;SDS011;2169;49.086;9.284;2022-08-19T04:31:39;22.37;;;15.20;;
4311;SDS011;2169;49.086;9.284;2022-08-19T04:34:09;24.77;;;14.63;;
4311;SDS011;2169;49.086;9.284;2022-08-19T04:36:39;22.27;;;13.40;;
4311;SDS011;2169;49.086;9.284;2022-08-19T04:39:07;23.47;;;15.83;;
4311;SDS011;2169;49.086;9.284;2022-08-19T04:41:35;20.30;;;13.17;;
4311;SDS011;2169;49.086;9.284;2022-08-19T04:44:21;22.73;;;15.27;;
4311;SDS011;2169;49.086;9.284;2022-08-19T04:46:57;21.93;;;13.03;;
4311;SDS011;2169;49.086;9.284;2022-08-19T04:49:31;25.10;;;13.87;;
4311;SDS011;2169;49.086;9.284;2022-08-19T04:51:58;18.47;;;13.27;;
4311;SDS011;2169;49.086;9.284;2022-08-19T04:54:25;24.00;;;12.70;;
4311;SDS011;2169;49.086;9.284;2022-08-19T04:56:52;22.27;;;15.10;;
4311;SDS011;2169;49.086;9.284;2022-08-19T04:59:19;22.03;;;13.90;;
4311;SDS011;2169;49.086;9.284;2022-08-19T05:01:48;30.90;;;14.80;;
4311;SDS011;2169;49.086;9.284;2022-08-19T05:04:15;22.10;;;15.70;;
4311;SDS011;2169;49.086;9.284;2022-08-19T05:06:44;22.80;;;15.17;;
4311;SDS011;2169;49.086;9.284;2022-08-19T05:09:12;26.43;;;14.07;;
4311;SDS011;2169;49.086;9.284;2022-08-19T05:11:40;29.10;;;15.20;;
4311;SDS011;2169;49.086;9.284;2022-08-19T05:14:06;22.20;;;12.50;;
4311;SDS011;2169;49.086;9.284;2022-08-19T05:16:36;30.60;;;16.73;;
4311;SDS011;2169;49.086;9.284;2022-08-19T05:19:03;23.13;;;14.87;;
4311;SDS011;2169;49.086;9.284;2022-08-19T05:21:47;25.80;;;12.50;;
4311;SDS011;2169;49.086;9.284;2022-08-19T05:24:32;22.77;;;15.43;;
4311;SDS011;2169;49.086;9.284;2022-08-19T05:27:00;26.10;;;16.03;;
4311;SDS011;2169;49.086;9.284;2022-08-19T05:29:30;24.97;;;15.73;;
4311;SDS011;2169;49.086;9.284;2022-08-19T05:32:00;25.90;;;14.47;;
4311;SDS011;2169;49.086;9.284;2022-08-19T05:34:30;16.43;;;12.37;;
4311;SDS011;2169;49.086;9.284;2022-08-19T05:36:58;26.23;;;15.23;;
4311;SDS011;2169;49.086;9.284;2022-08-19T05:39:28;27.70;;;17.10;;
4311;SDS011;2169;49.086;9.284;2022-08-19T05:41:58;22.80;;;15.50;;
4311;SDS011;2169;49.086;9.284;2022-08-19T05:44:27;21.77;;;13.00;;
4311;SDS011;2169;49.086;9.284;2022-08-19T05:46:57;31.50;;;16.40;;
4311;SDS011;2169;49.086;9.284;2022-08-19T05:49:26;27.50;;;15.97;;
4311;SDS011;2169;49.086;9.284;2022-08-19T05:51:53;24.73;;;13.87;;
4311;SDS011;2169;49.086;9.284;2022-08-19T05:54:21;30.33;;;15.97;;
4311;SDS011;2169;49.086;9.284;2022-08-19T05:56:49;23.10;;;15.37;;
4311;SDS011;2169;49.086;9.284;2022-08-19T05:59:17;30.97;;;16.93;;
4311;SDS011;2169;49.086;9.284;2022-08-19T06:01:47;23.40;;;15.07;;
4311;SDS011;2169;49.086;9.284;2022-08-19T06:04:15;28.77;;;13.70;;
4311;SDS011;2169;49.086;9.284;2022-08-19T06:06:45;30.83;;;16.30;;
4311;SDS011;2169;49.086;9.284;2022-08-19T06:09:13;35.00;;;14.23;;
4311;SDS011;2169;49.086;9.284;2022-08-19T06:11:41;23.30;;;15.77;;
4311;SDS011;2169;49.086;9.284;2022-08-19T06:14:10;28.63;;;15.30;;
4311;SDS011;2169;49.086;9.284;2022-08-19T06:16:41;21.60;;;14.43;;
4311;SDS011;2169;49.086;9.284;2022-08-19T06:19:09;25.00;;;15.73;;
4311;SDS011;2169;49.086;9.284;2022-08-19T06:21:42;28.10;;;14.70;;
4311;SDS011;2169;49.086;9.284;2022-08-19T06:24:11;22.23;;;14.00;;
4311;SDS011;2169;49.086;9.284;2022-08-19T06:26:42;28.33;;;15.67;;
4311;SDS011;2169;49.086;9.284;2022-08-19T06:29:11;31.07;;;16.77;;
4311;SDS011;2169;49.086;9.284;2022-08-19T06:31:41;24.57;;;16.73;;
4311;SDS011;2169;49.086;9.284;2022-08-19T06:34:10;35.33;;;16.87;;
4311;SDS011;2169;49.086;9.284;2022-08-19T06:36:38;26.33;;;13.57;;
4311;SDS011;2169;49.086;9.284;2022-08-19T06:39:08;32.50;;;17.10;;
4311;SDS011;2169;49.086;9.284;2022-08-19T06:41:39;24.63;;;15.83;;
4311;SDS011;2169;49.086;9.284;2022-08-19T06:44:09;22.93;;;13.70;;
4311;SDS011;2169;49.086;9.284;2022-08-19T06:46:36;27.17;;;17.00;;
4311;SDS011;2169;49.086;9.284;2022-08-19T06:49:04;40.77;;;16.70;;
4311;SDS011;2169;49.086;9.284;2022-08-19T06:51:33;29.57;;;15.50;;
4311;SDS011;2169;49.086;9.284;2022-08-19T06:54:00;29.60;;;14.67;;
4311;SDS011;2169;49.086;9.284;2022-08-19T06:56:29;29.93;;;15.40;;
4311;SDS011;2169;49.086;9.284;2022-08-19T06:58:58;21.67;;;13.47;;
4311;SDS011;2169;49.086;9.284;2022-08-19T07:01:25;23.73;;;14.10;;
4311;SDS011;2169;49.086;9.284;2022-08-19T07:03:52;27.80;;;16.20;;
4311;SDS011;2169;49.086;9.284;2022-08-19T07:06:19;21.73;;;12.77;;
4311;SDS011;2169;49.086;9.284;2022-08-19T07:08:46;22.83;;;15.50;;
4311;SDS011;2169;49.086;9.284;2022-08-19T07:11:15;25.43;;;16.90;;
4311;SDS011;2169;49.086;9.284;2022-08-19T07:13:47;22.10;;;14.33;;
4311;SDS011;2169;49.086;9.284;2022-08-19T07:16:15;21.87;;;12.87;;
4311;SDS011;2169;49.086;9.284;2022-08-19T07:18:44;32.40;;;14.00;;
4311;SDS011;2169;49.086;9.284;2022-08-19T07:21:13;27.90;;;15.20;;
4311;SDS011;2169;49.086;9.284;2022-08-19T07:23:41;27.30;;;15.00;;
4311;SDS011;2169;49.086;9.284;2022-08-19T07:26:09;24.83;;;14.30;;
4311;SDS011;2169;49.086;9.284;2022-08-19T07:28:38;21.20;;;14.10;;
4311;SDS011;2169;49.086;9.284;2022-08-19T07:31:08;18.83;;;13.13;;
4311;SDS011;2169;49.086;9.284;2022-08-19T07:33:38;24.47;;;14.83;;
4311;SDS011;2169;49.086;9.284;2022-08-19T07:36:07;25.63;;;13.40;;
4311;SDS011;2169;49.086;9.284;2022-08-19T07:38:36;28.20;;;14.77;;
4311;SDS011;2169;49.086;9.284;2022-08-19T07:41:05;22.00;;;13.43;;
4311;SDS011;2169;49.086;9.284;2022-08-19T07:43:32;19.90;;;12.70;;
4311;SDS011;2169;49.086;9.284;2022-08-19T07:45:59;21.90;;;14.87;;
4311;SDS011;2169;49.086;9.284;2022-08-19T07:48:27;23.17;;;15.13;;
4311;SDS011;2169;49.086;9.284;2022-08-19T07:50:56;23.13;;;13.70;;
4311;SDS011;2169;49.086;9.284;2022-08-19T07:53:27;16.57;;;11.90;;
4311;SDS011;2169;49.086;9.284;2022-08-19T07:55:56;26.43;;;13.83;;
4311;SDS011;2169;49.086;9.284;2022-08-19T07:58:26;18.60;;;11.33;;
4311;SDS011;2169;49.086;9.284;2022-08-19T08:00:54;20.30;;;14.07;;
4311;SDS011;2169;49.086;9.284;2022-08-19T08:03:21;32.83;;;14.83;;
4311;SDS011;2169;49.086;9.284;2022-08-19T08:06:10;20.73;;;12.87;;
4311;SDS011;2169;49.086;9.284;2022-08-19T08:08:55;20.00;;;12.17;;
4311;SDS011;2169;49.086;9.284;2022-08-19T08:11:37;16.53;;;10.60;;
4311;SDS011;2169;49.086;9.284;2022-08-19T08:14:05;20.13;;;10.50;;
4311;SDS011;2169;49.086;9.284;2022-08-19T08:16:33;18.43;;;12.53;;
4311;SDS011;2169;49.086;9.284;2022-08-19T08:19:02;15.63;;;12.00;;
4311;SDS011;2169;49.086;9.284;2022-08-19T08:21:31;17.57;;;10.50;;
4311;SDS011;2169;49.086;9.284;2022-08-19T08:23:59;16.40;;;10.63;;
4311;SDS011;2169;49.086;9.284;2022-08-19T08:26:26;18.23;;;11.20;;
4311;SDS011;2169;49.086;9.284;2022-08-19T08:28:53;18.37;;;9.87;;
4311;SDS011;2169;49.086;9.284;2022-08-19T08:31:21;21.70;;;10.63;;
4311;SDS011;2169;49.086;9.284;2022-08-19T08:33:48;16.60;;;10.50;;
4311;SDS011;2169;49.086;9.284;2022-08-19T08:36:15;13.67;;;10.17;;
4311;SDS011;2169;49.086;9.284;2022-08-19T08:38:44;12.33;;;8.90;;
4311;SDS011;2169;49.086;9.284;2022-08-19T08:41:13;18.73;;;10.00;;
4311;SDS011;2169;49.086;9.284;2022-08-19T08:43:49;14.33;;;10.50;;
4311;SDS011;2169;49.086;9.284;2022-08-19T08:46:28;16.03;;;11.60;;
4311;SDS011;2169;49.086;9.284;2022-08-19T08:49:06;11.50;;;9.10;;
4311;SDS011;2169;49.086;9.284;2022-08-19T08:51:46;13.50;;;10.10;;
4311;SDS011;2169;49.086;9.284;2022-08-19T08:54:20;19.27;;;8.57;;
4311;SDS011;2169;49.086;9.284;2022-08-19T08:56:59;13.40;;;9.30;;
4311;SDS011;2169;49.086;9.284;2022-08-19T08:59:28;14.70;;;8.40;;
4311;SDS011;2169;49.086;9.284;2022-08-19T09:01:57;26.63;;;9.63;;
4311;SDS011;2169;49.086;9.284;2022-08-19T09:04:24;15.07;;;9.93;;
4311;SDS011;2169;49.086;9.284;2022-08-19T09:06:53;15.17;;;9.80;;
4311;SDS011;2169;49.086;9.284;2022-08-19T09:09:38;17.80;;;9.73;;
4311;SDS011;2169;49.086;9.284;2022-08-19T09:12:10;14.67;;;9.73;;
4311;SDS011;2169;49.086;9.284;2022-08-19T09:14:45;13.07;;;9.57;;
4311;SDS011;2169;49.086;9.284;2022-08-19T09:17:16;12.80;;;9.10;;
4311;SDS011;2169;49.086;9.284;2022-08-19T09:19:49;13.97;;;9.17;;
4311;SDS011;2169;49.086;9.284;2022-08-19T09:22:19;18.23;;;10.07;;
4311;SDS011;2169;49.086;9.284;2022-08-19T09:24:49;15.40;;;9.43;;
4311;SDS011;2169;49.086;9.284;2022-08-19T09:27:18;17.87;;;11.40;;
4311;SDS011;2169;49.086;9.284;2022-08-19T09:29:45;10.90;;;8.07;;
4311;SDS011;2169;49.086;9.284;2022-08-19T09:32:13;14.53;;;9.63;;
4311;SDS011;2169;49.086;9.284;2022-08-19T09:34:40;10.97;;;9.53;;
4311;SDS011;2169;49.086;9.284;2022-08-19T09:37:08;17.23;;;9.00;;
4311;SDS011;2169;49.086;9.284;2022-08-19T09:39:35;14.87;;;9.53;;
4311;SDS011;2169;49.086;9.284;2022-08-19T09:42:04;10.00;;;7.33;;
4311;SDS011;2169;49.086;9.284;2022-08-19T09:44:36;13.77;;;9.13;;
4311;SDS011;2169;49.086;9.284;2022-08-19T09:47:03;11.70;;;9.33;;
4311;SDS011;2169;49.086;9.284;2022-08-19T09:49:30;10.67;;;8.27;;
4311;SDS011;2169;49.086;9.284;2022-08-19T09:51:58;16.83;;;10.50;;
4311;SDS011;2169;49.086;9.284;2022-08-19T09:54:26;12.27;;;8.50;;
4311;SDS011;2169;49.086;9.284;2022-08-19T09:56:54;10.90;;;7.87;;
4311;SDS011;2169;49.086;9.284;2022-08-19T09:59:23;13.03;;;9.47;;
4311;SDS011;2169;49.086;9.284;2022-08-19T10:01:50;12.50;;;8.83;;
4311;SDS011;2169;49.086;9.284;2022-08-19T10:04:17;12.80;;;9.40;;
4311;SDS011;2169;49.086;9.284;2022-08-19T10:06:44;10.43;;;8.70;;
4311;SDS011;2169;49.086;9.284;2022-08-19T10:09:13;15.27;;;11.90;;
4311;SDS011;2169;49.086;9.284;2022-08-19T10:11:42;13.60;;;9.17;;
4311;SDS011;2169;49.086;9.284;2022-08-19T10:14:11;23.13;;;8.73;;
4311;SDS011;2169;49.086;9.284;2022-08-19T10:16:39;13.40;;;9.13;;
4311;SDS011;2169;49.086;9.284;2022-08-19T10:19:07;16.87;;;9.20;;
4311;SDS011;2169;49.086;9.284;2022-08-19T10:21:34;13.13;;;9.00;;
4311;SDS011;2169;49.086;9.284;2022-08-19T10:24:02;12.27;;;8.57;;
4311;SDS011;2169;49.086;9.284;2022-08-19T10:26:31;9.07;;;6.87;;
4311;SDS011;2169;49.086;9.284;2022-08-19T10:29:01;13.17;;;8.30;;
4311;SDS011;2169;49.086;9.284;2022-08-19T10:31:30;18.00;;;10.10;;
4311;SDS011;2169;49.086;9.284;2022-08-19T10:34:00;7.77;;;6.97;;
4311;SDS011;2169;49.086;9.284;2022-08-19T10:36:28;7.80;;;6.80;;
4311;SDS011;2169;49.086;9.284;2022-08-19T10:38:57;14.13;;;7.00;;
4311;SDS011;2169;49.086;9.284;2022-08-19T10:41:27;7.47;;;5.80;;
4311;SDS011;2169;49.086;9.284;2022-08-19T10:43:55;5.07;;;4.57;;
4311;SDS011;2169;49.086;9.284;2022-08-19T10:46:24;10.17;;;5.30;;
4311;SDS011;2169;49.086;9.284;2022-08-19T10:48:52;7.03;;;5.60;;
4311;SDS011;2169;49.086;9.284;2022-08-19T10:51:21;15.10;;;7.40;;
4311;SDS011;2169;49.086;9.284;2022-08-19T10:54:06;5.23;;;4.60;;
4311;SDS011;2169;49.086;9.284;2022-08-19T10:56:33;4.20;;;3.80;;
4311;SDS011;2169;49.086;9.284;2022-08-19T10:59:18;7.57;;;6.17;;
4311;SDS011;2169;49.086;9.284;2022-08-19T11:01:46;5.60;;;5.10;;
4311;SDS011;2169;49.086;9.284;2022-08-19T11:04:14;7.23;;;4.40;;
4311;SDS011;2169;49.086;9.284;2022-08-19T11:06:44;8.93;;;4.13;;
4311;SDS011;2169;49.086;9.284;2022-08-19T11:09:13;9.00;;;4.60;;
4311;SDS011;2169;49.086;9.284;2022-08-19T11:11:40;4.83;;;4.40;;
4311;SDS011;2169;49.086;9.284;2022-08-19T11:14:08;3.67;;;3.47;;
4311;SDS011;2169;49.086;9.284;2022-08-19T11:16:35;4.90;;;4.50;;
4311;SDS011;2169;49.086;9.284;2022-08-19T11:19:03;5.27;;;4.83;;
4311;SDS011;2169;49.086;9.284;2022-08-19T11:21:33;6.13;;;5.23;;
4311;SDS011;2169;49.086;9.284;2022-08-19T11:24:02;4.13;;;3.40;;
4311;SDS011;2169;49.086;9.284;2022-08-19T11:26:31;3.73;;;3.43;;
4311;SDS011;2169;49.086;9.284;2022-08-19T11:28:59;3.43;;;3.13;;
4311;SDS011;2169;49.086;9.284;2022-08-19T11:31:28;5.33;;;3.50;;
4311;SDS011;2169;49.086;9.284;2022-08-19T11:33:57;4.63;;;4.40;;
4311;SDS011;2169;49.086;9.284;2022-08-19T11:36:24;3.60;;;3.40;;
4311;SDS011;2169;49.086;9.284;2022-08-19T11:38:53;4.80;;;3.67;;
4311;SDS011;2169;49.086;9.284;2022-08-19T11:41:24;3.70;;;3.40;;
4311;SDS011;2169;49.086;9.284;2022-08-19T11:43:52;7.40;;;3.60;;
4311;SDS011;2169;49.086;9.284;2022-08-19T11:46:21;2.83;;;2.53;;
4311;SDS011;2169;49.086;9.284;2022-08-19T11:48:54;3.13;;;2.93;;
4311;SDS011;2169;49.086;9.284;2022-08-19T11:51:22;4.17;;;3.87;;
4311;SDS011;2169;49.086;9.284;2022-08-19T11:53:50;2.80;;;2.60;;
4311;SDS011;2169;49.086;9.284;2022-08-19T11:56:18;2.37;;;2.17;;
4311;SDS011;2169;49.086;9.284;2022-08-19T11:58:47;3.50;;;3.20;;
4311;SDS011;2169;49.086;9.284;2022-08-19T12:01:15;3.90;;;2.87;;
4311;SDS011;2169;49.086;9.284;2022-08-19T12:03:44;7.33;;;3.00;;
4311;SDS011;2169;49.086;9.284;2022-08-19T12:06:12;6.97;;;3.10;;
4311;SDS011;2169;49.086;9.284;2022-08-19T12:08:42;3.97;;;3.47;;
4311;SDS011;2169;49.086;9.284;2022-08-19T12:11:10;5.20;;;4.13;;
4311;SDS011;2169;49.086;9.284;2022-08-19T12:13:41;4.23;;;2.60;;
4311;SDS011;2169;49.086;9.284;2022-08-19T12:16:12;2.93;;;2.70;;
4311;SDS011;2169;49.086;9.284;2022-08-19T12:18:40;5.23;;;2.90;;
4311;SDS011;2169;49.086;9.284;2022-08-19T12:21:10;2.20;;;2.10;;
4311;SDS011;2169;49.086;9.284;2022-08-19T12:23:38;3.00;;;2.80;;
4311;SDS011;2169;49.086;9.284;2022-08-19T12:26:06;3.10;;;2.83;;
4311;SDS011;2169;49.086;9.284;2022-08-19T12:28:35;10.03;;;3.13;;
4311;SDS011;2169;49.086;9.284;2022-08-19T12:31:02;6.10;;;2.67;;
4311;SDS011;2169;49.086;9.284;2022-08-19T12:33:31;8.63;;;2.90;;
4311;SDS011;2169;49.086;9.284;2022-08-19T12:36:00;2.50;;;2.40;;
4311;SDS011;2169;49.086;9.284;2022-08-19T12:38:28;3.80;;;2.67;;
4311;SDS011;2169;49.086;9.284;2022-08-19T12:40:57;3.77;;;2.93;;
4311;SDS011;2169;49.086;9.284;2022-08-19T12:43:24;5.80;;;2.93;;
4311;SDS011;2169;49.086;9.284;2022-08-19T12:45:51;3.60;;;2.60;;
4311;SDS011;2169;49.086;9.284;2022-08-19T12:48:18;3.13;;;2.97;;
4311;SDS011;2169;49.086;9.284;2022-08-19T12:50:46;2.37;;;2.27;;
4311;SDS011;2169;49.086;9.284;2022-08-19T12:53:13;2.43;;;2.30;;
4311;SDS011;2169;49.086;9.284;2022-08-19T12:55:40;3.27;;;2.97;;
4311;SDS011;2169;49.086;9.284;2022-08-19T12:58:09;3.23;;;2.03;;
4311;SDS011;2169;49.086;9.284;2022-08-19T13:00:37;3.30;;;3.10;;
4311;SDS011;2169;49.086;9.284;2022-08-19T13:03:04;7.23;;;4.00;;
4311;SDS011;2169;49.086;9.284;2022-08-19T13:05:32;4.33;;;2.70;;
4311;SDS011;2169;49.086;9.284;2022-08-19T13:08:00;3.10;;;2.30;;
4311;SDS011;2169;49.086;9.284;2022-08-19T13:10:28;6.30;;;2.80;;
4311;SDS011;2169;49.086;9.284;2022-08-19T13:13:00;4.37;;;2.57;;
4311;SDS011;2169;49.086;9.284;2022-08-19T13:15:28;9.73;;;3.20;;
4311;SDS011;2169;49.086;9.284;2022-08-19T13:17:56;4.83;;;4.43;;
4311;SDS011;2169;49.086;9.284;2022-08-19T13:20:24;3.17;;;2.97;;
4311;SDS011;2169;49.086;9.284;2022-08-19T13:22:51;2.53;;;2.43;;
4311;SDS011;2169;49.086;9.284;2022-08-19T13:25:22;2.80;;;2.67;;
4311;SDS011;2169;49.086;9.284;2022-08-19T13:27:50;6.57;;;2.50;;
4311;SDS011;2169;49.086;9.284;2022-08-19T13:30:18;6.33;;;3.10;;
4311;SDS011;2169;49.086;9.284;2022-08-19T13:33:03;3.33;;;2.63;;
4311;SDS011;2169;49.086;9.284;2022-08-19T13:35:37;4.20;;;3.40;;
4311;SDS011;2169;49.086;9.284;2022-08-19T13:38:05;4.80;;;3.00;;
4311;SDS011;2169;49.086;9.284;2022-08-19T13:40:33;2.30;;;2.20;;
4311;SDS011;2169;49.086;9.284;2022-08-19T13:43:01;5.90;;;2.00;;
4311;SDS011;2169;49.086;9.284;2022-08-19T13:45:29;17.33;;;3.30;;
4311;SDS011;2169;49.086;9.284;2022-08-19T13:48:04;3.87;;;2.70;;
4311;SDS011;2169;49.086;9.284;2022-08-19T13:50:38;7.00;;;3.63;;
4311;SDS011;2169;49.086;9.284;2022-08-19T13:53:06;22.17;;;3.70;;
4311;SDS011;2169;49.086;9.284;2022-08-19T13:55:36;4.73;;;3.03;;
4311;SDS011;2169;49.086;9.284;2022-08-19T13:58:04;3.90;;;3.30;;
4311;SDS011;2169;49.086;9.284;2022-08-19T14:00:32;4.00;;;3.00;;
4311;SDS011;2169;49.086;9.284;2022-08-19T14:03:00;4.13;;;3.83;;
4311;SDS011;2169;49.086;9.284;2022-08-19T14:05:28;3.93;;;3.63;;
4311;SDS011;2169;49.086;9.284;2022-08-19T14:07:56;4.50;;;3.03;;
4311;SDS011;2169;49.086;9.284;2022-08-19T14:10:24;3.30;;;3.10;;
4311;SDS011;2169;49.086;9.284;2022-08-19T14:12:54;4.23;;;3.63;;
4311;SDS011;2169;49.086;9.284;2022-08-19T14:15:23;4.10;;;3.77;;
4311;SDS011;2169;49.086;9.284;2022-08-19T14:17:51;2.53;;;2.33;;
4311;SDS011;2169;49.086;9.284;2022-08-19T14:20:18;4.77;;;3.87;;
4311;SDS011;2169;49.086;9.284;2022-08-19T14:22:47;3.13;;;2.93;;
4311;SDS011;2169;49.086;9.284;2022-08-19T14:25:16;4.30;;;3.90;;
4311;SDS011;2169;49.086;9.284;2022-08-19T14:27:44;5.03;;;3.60;;
4311;SDS011;2169;49.086;9.284;2022-08-19T14:30:14;4.17;;;3.87;;
4311;SDS011;2169;49.086;9.284;2022-08-19T14:32:42;3.87;;;3.67;;
4311;SDS011;2169;49.086;9.284;2022-08-19T14:35:12;5.80;;;3.90;;
4311;SDS011;2169;49.086;9.284;2022-08-19T14:37:40;7.57;;;3.70;;
4311;SDS011;2169;49.086;9.284;2022-08-19T14:40:08;4.57;;;4.13;;
4311;SDS011;2169;49.086;9.284;2022-08-19T14:42:36;2.90;;;2.70;;
4311;SDS011;2169;49.086;9.284;2022-08-19T14:45:03;3.07;;;2.80;;
4311;SDS011;2169;49.086;9.284;2022-08-19T14:47:32;3.60;;;3.30;;
4311;SDS011;2169;49.086;9.284;2022-08-19T14:49:59;5.03;;;3.50;;
4311;SDS011;2169;49.086;9.284;2022-08-19T14:52:26;4.97;;;3.70;;
4311;SDS011;2169;49.086;9.284;2022-08-19T14:54:53;4.87;;;4.47;;
4311;SDS011;2169;49.086;9.284;2022-08-19T14:57:20;4.77;;;3.23;;
4311;SDS011;2169;49.086;9.284;2022-08-19T14:59:48;7.90;;;4.17;;
4311;SDS011;2169;49.086;9.284;2022-08-19T15:02:15;8.90;;;4.43;;
4311;SDS011;2169;49.086;9.284;2022-08-19T15:04:43;3.97;;;3.63;;
4311;SDS011;2169;49.086;9.284;2022-08-19T15:07:10;5.00;;;4.60;;
4311;SDS011;2169;49.086;9.284;2022-08-19T15:09:37;7.80;;;5.23;;